Time;durP1;ratioP1;P1;durP2;ratioP2;P2;SDS_P1;SDS_P2;PMS_P1;PMS_P2;Temp;Humidity;BMP_temperature;BMP_pressure;BME280_temperature;BME280_humidity;BME280_pressure;Samples;Min_cycle;Max_cycle;Signal;HPM_P1;HPM_P2
2021/12/04 00:00:05;;;;;;;39.75;23.15;;;4.30;99.90;;;;;;5046359;28;20052;-74
2021/12/04 00:02:32;;;;;;;48.05;23.10;;;4.30;99.90;;;;;;5049917;28;20045;-74
2021/12/04 00:04:59;;;;;;;45.35;22.67;;;4.30;99.90;;;;;;5049442;28;20075;-74
2021/12/04 00:07:27;;;;;;;41.65;22.27;;;4.30;99.90;;;;;;5046313;28;20041;-74
2021/12/04 00:09:57;;;;;;;45.45;22.38;;;4.30;99.90;;;;;;5053064;28;20102;-74
2021/12/04 00:12:23;;;;;;;43.35;22.15;;;4.30;99.90;;;;;;5048512;28;20102;-74
2021/12/04 00:14:49;;;;;;;58.08;22.65;;;4.30;99.90;;;;;;5047358;28;20497;-74
2021/12/04 00:17:15;;;;;;;47.08;22.98;;;4.30;99.90;;;;;;5030000;28;20098;-74
2021/12/04 00:19:40;;;;;;;44.03;21.52;;;4.30;99.90;;;;;;5049183;28;20040;-74
2021/12/04 00:22:06;;;;;;;37.88;22.05;;;4.30;99.90;;;;;;5047589;28;20049;-74
2021/12/04 00:24:32;;;;;;;41.13;23.33;;;4.30;99.90;;;;;;5048186;28;20032;-74
2021/12/04 00:26:58;;;;;;;47.38;22.23;;;4.30;99.90;;;;;;5046488;28;20111;-74
2021/12/04 00:29:23;;;;;;;46.42;22.35;;;4.30;99.90;;;;;;5042389;28;20128;-74
2021/12/04 00:31:54;;;;;;;44.08;22.45;;;4.30;99.90;;;;;;5050277;28;20036;-74
2021/12/04 00:34:22;;;;;;;40.33;21.30;;;4.30;99.90;;;;;;5041429;28;20044;-75
2021/12/04 00:37:04;;;;;;;42.80;22.10;;;4.30;99.90;;;;;;5048661;28;20044;-74
2021/12/04 00:50:26;;;;;;;33.38;19.52;;;4.30;99.90;;;;;;5044181;28;20039;-74
2021/12/04 00:52:52;;;;;;;31.83;18.50;;;4.30;99.90;;;;;;5032595;28;20037;-74
2021/12/04 00:55:17;;;;;;;28.90;18.52;;;4.30;99.90;;;;;;5036433;28;20170;-74
2021/12/04 00:57:43;;;;;;;32.40;19.25;;;4.30;99.90;;;;;;5036521;28;20037;-74
2021/12/04 01:00:09;;;;;;;28.50;17.95;;;4.30;99.90;;;;;;5051839;28;20040;-74
2021/12/04 01:02:35;;;;;;;28.73;18.17;;;4.30;99.90;;;;;;5030264;28;20036;-74
2021/12/04 01:05:01;;;;;;;28.38;17.13;;;4.30;99.90;;;;;;5023604;28;20492;-74
2021/12/04 01:07:27;;;;;;;27.67;17.88;;;4.30;99.90;;;;;;5044219;28;20427;-74
2021/12/04 01:09:53;;;;;;;24.70;17.92;;;4.30;99.90;;;;;;5045597;28;20128;-73
2021/12/04 01:12:19;;;;;;;26.48;18.55;;;4.30;99.90;;;;;;5026723;28;20036;-74
2021/12/04 01:14:45;;;;;;;26.98;17.40;;;4.20;99.90;;;;;;5017865;28;20522;-74
2021/12/04 01:17:10;;;;;;;25.20;17.00;;;4.30;99.90;;;;;;5048870;28;20496;-74
2021/12/04 01:19:36;;;;;;;24.35;16.80;;;4.20;99.90;;;;;;5030001;28;20448;-73
2021/12/04 01:22:03;;;;;;;22.90;16.95;;;4.20;99.90;;;;;;5053065;28;20040;-74
2021/12/04 01:24:30;;;;;;;24.42;16.98;;;4.30;99.90;;;;;;5029193;28;20040;-77
2021/12/04 01:26:55;;;;;;;22.25;17.15;;;4.20;99.90;;;;;;5034925;28;20033;-74
2021/12/04 01:29:21;;;;;;;23.52;15.70;;;4.20;99.90;;;;;;5047562;28;20082;-74
2021/12/04 01:31:47;;;;;;;22.85;16.67;;;4.20;99.90;;;;;;5049984;28;20033;-74
2021/12/04 01:34:14;;;;;;;22.65;15.65;;;4.20;99.90;;;;;;5044068;28;20032;-74
2021/12/04 01:36:39;;;;;;;22.98;15.85;;;4.20;99.90;;;;;;5043893;28;20404;-74
2021/12/04 01:39:06;;;;;;;23.15;16.38;;;4.20;99.90;;;;;;5027103;28;20044;-74
2021/12/04 01:41:33;;;;;;;25.00;17.40;;;4.30;99.90;;;;;;5047058;28;20040;-74
2021/12/04 01:43:59;;;;;;;25.48;16.08;;;4.20;99.90;;;;;;5045563;28;20032;-74
2021/12/04 01:46:26;;;;;;;24.20;15.73;;;4.30;99.90;;;;;;5044576;28;20037;-74
2021/12/04 01:48:52;;;;;;;22.65;16.55;;;4.20;99.90;;;;;;5035469;28;20170;-75
2021/12/04 01:51:18;;;;;;;21.80;15.05;;;4.20;99.90;;;;;;5057061;23;20127;-75
2021/12/04 01:53:44;;;;;;;22.33;15.32;;;4.30;99.90;;;;;;5036199;28;20098;-75
2021/12/04 01:56:10;;;;;;;22.15;15.35;;;4.20;99.90;;;;;;5035740;28;20040;-75
2021/12/04 01:58:36;;;;;;;21.65;15.15;;;4.30;99.90;;;;;;5029541;28;20067;-75
2021/12/04 02:01:03;;;;;;;21.13;14.35;;;4.20;99.90;;;;;;5033903;28;20029;-76
2021/12/04 02:03:29;;;;;;;21.48;15.50;;;4.20;99.90;;;;;;5034376;28;20052;-75
2021/12/04 02:05:55;;;;;;;25.45;16.05;;;4.20;99.90;;;;;;5017491;28;20127;-75
2021/12/04 02:08:23;;;;;;;22.05;14.73;;;4.30;99.90;;;;;;5034552;28;20136;-75
2021/12/04 02:10:52;;;;;;;20.52;14.77;;;4.20;99.90;;;;;;5030629;28;20094;-75
2021/12/04 02:13:18;;;;;;;22.38;14.63;;;4.30;99.90;;;;;;5028453;28;20037;-75
2021/12/04 02:15:45;;;;;;;23.38;15.10;;;4.20;99.90;;;;;;5035429;28;20036;-75
2021/12/04 02:18:13;;;;;;;20.88;14.73;;;4.20;99.90;;;;;;5027349;28;20074;-75
2021/12/04 02:20:39;;;;;;;20.98;15.40;;;4.20;99.90;;;;;;5031889;28;20444;-75
2021/12/04 02:23:07;;;;;;;23.38;15.18;;;4.20;99.90;;;;;;5033065;28;20033;-75
2021/12/04 02:25:33;;;;;;;22.42;15.23;;;4.20;99.90;;;;;;5028838;28;20037;-75
2021/12/04 02:28:01;;;;;;;21.42;14.90;;;4.20;99.90;;;;;;5033787;28;20404;-75
2021/12/04 02:30:34;;;;;;;23.05;15.30;;;4.20;99.90;;;;;;5028657;28;20040;-75
2021/12/04 02:33:00;;;;;;;23.42;15.95;;;4.20;99.90;;;;;;5020906;28;20122;-75
2021/12/04 02:35:27;;;;;;;20.90;15.48;;;4.20;99.90;;;;;;5017062;28;20047;-75
2021/12/04 02:37:54;;;;;;;21.25;14.88;;;4.20;99.90;;;;;;5021987;28;20055;-75
2021/12/04 02:40:23;;;;;;;21.13;14.73;;;4.20;99.90;;;;;;5014706;28;20774;-75
2021/12/04 02:42:49;;;;;;;20.40;14.73;;;4.20;99.90;;;;;;5016793;28;20145;-75
2021/12/04 02:45:16;;;;;;;21.33;14.63;;;4.20;99.90;;;;;;5014529;28;20036;-75
2021/12/04 02:47:42;;;;;;;21.20;15.40;;;4.20;99.90;;;;;;5033751;28;20052;-74
2021/12/04 02:50:10;;;;;;;21.33;14.55;;;4.20;99.90;;;;;;5031513;28;20083;-75
2021/12/04 02:52:38;;;;;;;20.85;14.23;;;4.20;99.90;;;;;;5021184;28;20064;-75
2021/12/04 02:55:05;;;;;;;19.88;14.27;;;4.20;99.90;;;;;;5015767;28;20040;-75
2021/12/04 02:57:34;;;;;;;22.48;13.57;;;4.20;99.90;;;;;;5017578;28;20137;-75
2021/12/04 03:00:00;;;;;;;18.60;13.95;;;4.20;99.90;;;;;;5019758;28;20064;-75
2021/12/04 03:02:26;;;;;;;20.73;13.88;;;4.20;99.90;;;;;;5015526;28;20434;-75
2021/12/04 03:04:55;;;;;;;20.38;14.23;;;4.20;99.90;;;;;;5020112;28;20130;-75
2021/12/04 03:07:22;;;;;;;20.88;13.88;;;4.20;99.90;;;;;;5036004;28;20504;-75
2021/12/04 03:09:49;;;;;;;20.48;13.52;;;4.20;99.90;;;;;;5024789;28;20125;-74
2021/12/04 03:12:22;;;;;;;19.80;13.13;;;4.20;99.90;;;;;;5029064;28;20106;-75
2021/12/04 03:14:49;;;;;;;20.25;13.93;;;4.20;99.90;;;;;;5027738;28;20039;-75
2021/12/04 03:17:18;;;;;;;19.90;14.07;;;4.20;99.90;;;;;;5040454;28;20048;-75
2021/12/04 03:19:44;;;;;;;19.48;13.70;;;4.20;99.90;;;;;;5036029;28;20036;-75
2021/12/04 03:22:10;;;;;;;21.85;13.40;;;4.20;99.90;;;;;;5038100;28;20036;-76
2021/12/04 03:24:39;;;;;;;18.08;13.27;;;4.30;99.90;;;;;;5038978;28;20139;-75
2021/12/04 03:27:05;;;;;;;20.77;13.50;;;4.20;99.90;;;;;;5036755;28;20035;-75
2021/12/04 03:29:34;;;;;;;20.13;14.15;;;4.20;99.90;;;;;;5031229;28;20098;-75
2021/12/04 03:43:05;;;;;;;18.88;13.13;;;4.20;99.90;;;;;;5055919;28;20044;-76
2021/12/04 03:45:34;;;;;;;15.55;12.27;;;4.20;99.90;;;;;;5035700;28;20037;-76
2021/12/04 03:48:07;;;;;;;16.55;12.40;;;4.20;99.90;;;;;;5034206;28;20072;-76
2021/12/04 03:50:34;;;;;;;18.98;13.35;;;4.20;99.90;;;;;;5037227;28;20036;-76
2021/12/04 03:53:00;;;;;;;17.95;12.93;;;4.20;99.90;;;;;;5035310;28;20562;-76
2021/12/04 03:55:26;;;;;;;16.85;12.32;;;4.20;99.90;;;;;;5034047;28;20514;-76
2021/12/04 03:57:52;;;;;;;18.45;12.50;;;4.20;99.90;;;;;;5036665;28;20051;-76
2021/12/04 04:00:19;;;;;;;17.33;12.48;;;4.20;99.90;;;;;;5036334;28;20036;-76
2021/12/04 04:02:46;;;;;;;18.75;12.02;;;4.20;99.90;;;;;;5033240;28;20037;-76
2021/12/04 04:05:12;;;;;;;16.80;12.68;;;4.20;99.90;;;;;;5034629;28;20041;-76
2021/12/04 04:07:39;;;;;;;17.15;12.63;;;4.20;99.90;;;;;;5031396;28;20040;-75
2021/12/04 04:10:06;;;;;;;16.48;12.35;;;4.20;99.90;;;;;;5030017;28;20434;-76
2021/12/04 04:12:33;;;;;;;16.80;12.70;;;4.20;99.90;;;;;;5030622;28;20424;-76
2021/12/04 04:14:59;;;;;;;17.67;13.10;;;4.20;99.90;;;;;;5031449;28;20041;-76
2021/12/04 04:17:30;;;;;;;18.25;13.00;;;4.20;99.90;;;;;;5029575;28;20048;-75
2021/12/04 04:19:56;;;;;;;16.70;12.35;;;4.20;99.90;;;;;;5034518;28;20048;-76
2021/12/04 04:22:22;;;;;;;18.13;12.30;;;4.20;99.90;;;;;;5031235;28;20036;-76
2021/12/04 04:24:48;;;;;;;18.85;13.50;;;4.20;99.90;;;;;;5028846;28;20051;-76
2021/12/04 04:27:14;;;;;;;17.02;12.38;;;4.20;99.90;;;;;;5038554;28;20074;-76
2021/12/04 04:29:40;;;;;;;17.70;12.65;;;4.20;99.90;;;;;;5049210;28;20396;-76
2021/12/04 04:32:06;;;;;;;17.70;12.63;;;4.20;99.90;;;;;;5030629;28;20459;-76
2021/12/04 04:34:35;;;;;;;18.98;13.38;;;4.20;99.90;;;;;;5034368;28;20032;-76
2021/12/04 05:12:12;;;;;;;20.25;12.88;;;4.30;99.90;;;;;;5045176;28;20041;-76
2021/12/04 05:14:41;;;;;;;20.27;13.32;;;4.20;99.90;;;;;;5029485;28;20044;-76
2021/12/04 05:17:16;;;;;;;20.27;13.65;;;4.30;99.90;;;;;;5030850;28;20127;-75
2021/12/04 05:22:13;;;;;;;20.90;14.05;;;4.30;99.90;;;;;;5042173;28;20053;-75
2021/12/04 05:24:40;;;;;;;22.52;13.65;;;4.30;99.90;;;;;;5020183;28;20056;-75
2021/12/04 05:27:08;;;;;;;20.88;13.77;;;4.20;99.90;;;;;;5027799;28;20048;-76
2021/12/04 05:29:35;;;;;;;20.50;13.95;;;4.20;99.90;;;;;;5026100;28;20064;-76
2021/12/04 05:32:02;;;;;;;20.65;13.30;;;4.20;99.90;;;;;;5028845;28;20119;-75
2021/12/04 05:34:30;;;;;;;25.80;14.98;;;4.20;99.90;;;;;;5024135;28;20054;-76
2021/12/04 05:36:56;;;;;;;22.38;14.05;;;4.20;99.90;;;;;;5028618;28;20079;-76
2021/12/04 05:39:22;;;;;;;23.70;14.13;;;4.20;99.90;;;;;;5028770;28;20183;-76
2021/12/04 05:41:48;;;;;;;23.50;14.35;;;4.20;99.90;;;;;;5031151;28;20040;-76
2021/12/04 05:44:16;;;;;;;23.48;14.02;;;4.20;99.90;;;;;;5029732;28;20068;-76
2021/12/04 05:46:47;;;;;;;28.80;13.95;;;4.30;99.90;;;;;;5029023;28;20478;-75
2021/12/04 05:49:20;;;;;;;22.70;13.45;;;4.20;99.90;;;;;;5029567;28;20033;-76
2021/12/04 05:57:03;;;;;;;23.63;13.98;;;4.20;99.90;;;;;;5046648;28;20032;-77
2021/12/04 05:59:29;;;;;;;25.45;14.15;;;4.30;99.90;;;;;;5027983;28;20063;-77
2021/12/04 06:01:55;;;;;;;26.83;14.55;;;4.30;99.90;;;;;;5021632;28;20039;-77
2021/12/04 06:04:21;;;;;;;26.60;15.40;;;4.30;99.90;;;;;;5025750;28;20399;-77
2021/12/04 06:06:47;;;;;;;28.42;15.35;;;4.30;99.90;;;;;;5029454;28;20598;-77
2021/12/04 06:09:14;;;;;;;28.85;14.18;;;4.20;99.90;;;;;;5025161;28;20039;-77
2021/12/04 06:11:40;;;;;;;27.30;14.32;;;4.30;99.90;;;;;;5026917;28;20165;-76
2021/12/04 06:14:06;;;;;;;28.92;15.48;;;4.20;99.90;;;;;;5024972;28;20040;-77
2021/12/04 06:16:33;;;;;;;25.58;14.27;;;4.30;99.90;;;;;;5041478;28;20036;-77
2021/12/04 06:19:08;;;;;;;32.00;14.95;;;4.30;99.90;;;;;;5024431;28;20040;-76
2021/12/04 06:24:21;;;;;;;33.72;14.82;;;4.20;99.90;;;;;;5039670;28;20040;-76
2021/12/04 06:26:47;;;;;;;27.63;14.40;;;4.20;99.90;;;;;;5022131;28;20320;-76
2021/12/04 06:29:13;;;;;;;28.35;14.82;;;4.20;99.90;;;;;;5021877;28;20041;-76
2021/12/04 06:31:39;;;;;;;25.52;14.15;;;4.30;99.90;;;;;;5021653;28;20068;-76
2021/12/04 06:34:05;;;;;;;37.40;16.10;;;4.30;99.90;;;;;;5024071;28;20036;-76
2021/12/04 06:36:32;;;;;;;30.63;15.43;;;4.30;99.90;;;;;;5026934;28;20135;-77
2021/12/04 06:38:58;;;;;;;30.67;14.52;;;4.30;99.90;;;;;;5021288;28;20111;-76
2021/12/04 06:41:24;;;;;;;29.88;14.98;;;4.30;99.90;;;;;;5023974;28;20463;-77
2021/12/04 06:43:52;;;;;;;31.55;15.85;;;4.20;99.90;;;;;;5025543;28;20110;-77
2021/12/04 06:46:19;;;;;;;30.88;15.48;;;4.20;99.90;;;;;;5025075;28;20116;-77
2021/12/04 06:49:09;;;;;;;37.00;16.40;;;4.30;99.90;;;;;;5043150;28;20036;-76
2021/12/04 06:51:38;;;;;;;39.45;15.88;;;4.20;99.90;;;;;;5026959;28;20071;-77
2021/12/04 06:54:14;;;;;;;37.22;16.30;;;4.30;99.90;;;;;;5029683;28;20098;-77
2021/12/04 06:56:42;;;;;;;37.08;15.57;;;4.30;99.90;;;;;;5021033;28;20063;-76
2021/12/04 06:59:14;;;;;;;43.35;16.88;;;4.30;99.90;;;;;;5024256;28;20051;-76
2021/12/04 07:01:41;;;;;;;33.17;15.07;;;4.30;99.90;;;;;;5019567;28;20036;-75
2021/12/04 07:04:07;;;;;;;35.50;15.57;;;4.20;99.90;;;;;;5022504;28;20040;-76
2021/12/04 07:06:34;;;;;;;35.60;15.93;;;4.20;99.90;;;;;;5022388;28;20033;-76
2021/12/04 07:09:02;;;;;;;36.38;15.20;;;4.30;99.90;;;;;;5024874;28;20035;-76
2021/12/04 07:11:28;;;;;;;32.20;15.77;;;4.20;99.90;;;;;;5046600;28;20040;-76
2021/12/04 07:13:54;;;;;;;46.50;15.95;;;4.30;99.90;;;;;;5024996;28;20139;-76
2021/12/04 07:16:21;;;;;;;32.70;15.52;;;4.30;99.90;;;;;;5025236;28;20052;-76
2021/12/04 07:18:48;;;;;;;35.50;14.60;;;4.30;99.90;;;;;;5025561;28;20048;-77
2021/12/04 07:21:14;;;;;;;33.20;15.05;;;4.20;99.90;;;;;;5031034;28;20040;-76
2021/12/04 07:23:41;;;;;;;37.20;15.77;;;4.20;99.90;;;;;;5025956;28;20048;-76
2021/12/04 07:26:07;;;;;;;31.88;15.05;;;4.20;99.90;;;;;;5040132;28;20049;-76
2021/12/04 07:28:34;;;;;;;36.85;14.35;;;4.20;99.90;;;;;;5027674;28;20039;-76
2021/12/04 07:31:00;;;;;;;35.25;14.52;;;4.30;99.90;;;;;;5023268;28;20258;-76
2021/12/04 07:33:29;;;;;;;32.25;14.40;;;4.20;99.90;;;;;;5036707;28;20035;-76
2021/12/04 07:35:57;;;;;;;34.53;14.57;;;4.30;99.90;;;;;;5033675;28;20047;-76
2021/12/04 07:38:24;;;;;;;35.25;15.13;;;4.20;99.90;;;;;;5027322;28;20044;-76
2021/12/04 07:40:50;;;;;;;31.48;15.13;;;4.20;99.90;;;;;;5026250;28;20127;-76
2021/12/04 07:43:16;;;;;;;39.75;16.25;;;4.20;99.90;;;;;;5023291;28;20040;-76
2021/12/04 07:45:56;;;;;;;42.28;16.25;;;4.20;99.90;;;;;;5031447;28;20036;-76
2021/12/04 07:48:27;;;;;;;44.22;16.95;;;4.20;99.90;;;;;;5029006;28;20439;-78
2021/12/04 07:51:19;;;;;;;40.20;16.52;;;4.20;99.90;;;;;;5072179;22;20052;-79
2021/12/04 07:53:49;;;;;;;52.97;17.77;;;4.30;99.90;;;;;;5066051;28;20036;-77
2021/12/04 07:56:24;;;;;;;56.80;18.17;;;4.20;99.90;;;;;;5051739;28;20056;-78
2021/12/04 07:59:03;;;;;;;59.05;18.45;;;4.20;99.90;;;;;;5065155;28;20044;-78
2021/12/04 08:04:37;;;;;;;57.80;18.10;;;4.30;99.90;;;;;;5092428;22;20418;-77
2021/12/04 08:07:03;;;;;;;67.30;19.05;;;4.30;99.90;;;;;;5073854;28;20491;-78
2021/12/04 08:09:28;;;;;;;62.60;19.63;;;4.30;99.90;;;;;;5074094;28;20028;-78
2021/12/04 08:11:54;;;;;;;59.13;19.65;;;4.30;99.90;;;;;;5036196;28;20037;-77
2021/12/04 08:14:19;;;;;;;72.07;20.00;;;4.30;99.90;;;;;;5061818;28;20036;-77
2021/12/04 08:16:47;;;;;;;65.00;19.55;;;4.30;99.90;;;;;;5025413;28;20041;-75
2021/12/04 08:19:13;;;;;;;78.07;19.98;;;4.30;99.90;;;;;;5032671;28;20119;-75
2021/12/04 08:21:39;;;;;;;69.70;19.73;;;4.30;99.90;;;;;;5047914;28;20053;-75
2021/12/04 08:24:06;;;;;;;66.78;19.90;;;4.30;99.90;;;;;;5016151;28;20044;-75
2021/12/04 08:26:38;;;;;;;78.53;19.73;;;4.30;99.90;;;;;;5020171;28;20048;-76
2021/12/04 08:29:05;;;;;;;73.22;19.58;;;4.30;99.90;;;;;;5016456;28;20065;-76
2021/12/04 08:31:32;;;;;;;55.53;19.00;;;4.40;99.90;;;;;;5051408;28;20033;-76
2021/12/04 08:33:57;;;;;;;65.78;18.05;;;4.40;99.90;;;;;;5035505;28;20037;-76
2021/12/04 08:36:23;;;;;;;53.42;19.98;;;4.40;99.90;;;;;;5035621;28;20040;-76
2021/12/04 08:38:49;;;;;;;69.00;19.88;;;4.40;99.90;;;;;;5026784;28;20041;-76
2021/12/04 08:41:17;;;;;;;61.55;19.30;;;4.40;99.90;;;;;;5052310;28;20127;-76
2021/12/04 08:43:42;;;;;;;80.85;20.23;;;4.40;99.90;;;;;;5035679;28;20045;-76
2021/12/04 08:46:09;;;;;;;70.53;20.40;;;4.40;99.90;;;;;;5018832;28;20048;-76
2021/12/04 08:48:34;;;;;;;62.10;20.35;;;4.40;99.90;;;;;;5018795;28;20044;-76
2021/12/04 08:51:02;;;;;;;61.63;20.00;;;4.50;99.90;;;;;;5052209;28;20041;-76
2021/12/04 08:53:28;;;;;;;66.38;20.10;;;4.50;99.90;;;;;;5055334;28;20511;-76
2021/12/04 08:55:54;;;;;;;67.53;19.50;;;4.50;99.90;;;;;;5038708;28;20385;-76
2021/12/04 08:58:20;;;;;;;57.67;18.70;;;4.50;99.90;;;;;;5047184;28;20119;-75
2021/12/04 09:00:53;;;;;;;61.25;18.67;;;4.50;99.90;;;;;;5020719;28;20047;-76
2021/12/04 09:03:27;;;;;;;78.03;20.45;;;4.50;99.90;;;;;;5036914;28;20025;-76
2021/12/04 09:05:53;;;;;;;52.22;18.27;;;4.50;99.90;;;;;;5042899;28;20028;-75
2021/12/04 09:08:22;;;;;;;60.55;19.25;;;4.50;99.90;;;;;;5043888;28;20385;-77
2021/12/04 09:10:49;;;;;;;59.35;19.40;;;4.50;99.90;;;;;;5050873;28;20507;-77
2021/12/04 09:13:16;;;;;;;70.82;18.35;;;4.50;99.90;;;;;;5035227;28;20502;-77
2021/12/04 09:15:43;;;;;;;47.78;17.67;;;4.50;99.90;;;;;;5045069;28;20036;-77
2021/12/04 09:18:09;;;;;;;65.60;18.42;;;4.60;99.90;;;;;;5034593;28;20496;-77
2021/12/04 09:20:35;;;;;;;55.97;18.30;;;4.60;99.90;;;;;;5023046;28;20040;-76
2021/12/04 09:23:03;;;;;;;63.08;18.60;;;4.60;99.90;;;;;;5034673;28;20432;-75
2021/12/04 09:25:31;;;;;;;73.10;19.33;;;4.60;99.90;;;;;;5039233;28;20037;-76
2021/12/04 09:28:03;;;;;;;71.35;19.50;;;4.60;99.90;;;;;;5055956;28;20408;-77
2021/12/04 10:00:43;;;;;;;62.13;19.30;;;4.90;99.90;;;;;;5036450;28;20048;-79
2021/12/04 10:03:33;;;;;;;47.88;18.65;;;4.90;99.90;;;;;;5019092;28;20044;-82
2021/12/04 10:17:35;;;;;;;56.63;19.20;;;5.00;99.90;;;;;;5067195;28;20527;-77
2021/12/04 10:23:09;;;;;;;58.08;18.75;;;5.00;99.90;;;;;;5050286;28;20110;-77
2021/12/04 10:33:52;;;;;;;44.60;20.17;;;5.00;99.90;;;;;;5038831;28;20063;-77
2021/12/04 10:36:36;;;;;;;53.28;19.50;;;5.10;99.90;;;;;;5033911;28;20041;-78
2021/12/04 10:39:04;;;;;;;52.78;20.23;;;5.10;99.90;;;;;;5042545;28;20072;-77
2021/12/04 10:41:40;;;;;;;39.95;19.83;;;5.10;99.90;;;;;;5019143;28;20041;-77
2021/12/04 10:44:15;;;;;;;44.67;19.50;;;5.10;99.90;;;;;;5016958;28;20040;-77
2021/12/04 10:47:04;;;;;;;41.47;18.88;;;5.10;99.90;;;;;;5017093;28;20409;-77
2021/12/04 10:55:32;;;;;;;68.78;21.23;;;5.10;99.90;;;;;;5053361;28;20048;-76
2021/12/04 10:58:24;;;;;;;47.53;19.17;;;5.10;99.90;;;;;;5049889;28;20087;-77
2021/12/04 11:01:20;;;;;;;52.35;20.23;;;5.10;99.90;;;;;;5033627;28;20127;-77
2021/12/04 11:03:57;;;;;;;53.20;21.10;;;5.10;99.90;;;;;;5051756;28;20127;-83
2021/12/04 11:38:02;;;;;;;44.70;16.88;;;5.20;99.90;;;;;;5037218;28;20122;-77
2021/12/04 11:40:55;;;;;;;49.60;18.27;;;5.20;99.90;;;;;;5020751;28;20374;-77
2021/12/04 11:43:24;;;;;;;45.53;17.50;;;5.20;99.90;;;;;;5036781;28;20052;-77
2021/12/04 11:48:31;;;;;;;47.72;18.50;;;5.30;99.90;;;;;;5036585;28;20056;-77
2021/12/04 11:50:57;;;;;;;45.92;18.17;;;5.30;99.90;;;;;;5036631;28;20047;-77
2021/12/04 11:53:23;;;;;;;46.78;18.55;;;5.40;99.90;;;;;;5036755;28;20128;-77
2021/12/04 11:55:51;;;;;;;46.08;17.10;;;5.50;99.90;;;;;;5020005;28;20068;-78
2021/12/04 11:58:26;;;;;;;44.55;16.55;;;5.50;99.90;;;;;;5036671;28;20094;-78
2021/12/04 12:00:58;;;;;;;49.40;18.15;;;5.50;99.90;;;;;;5036429;28;20044;-78
2021/12/04 12:03:33;;;;;;;47.38;19.38;;;5.50;99.90;;;;;;5036490;28;20123;-78
2021/12/04 12:06:08;;;;;;;39.05;16.75;;;5.50;99.90;;;;;;5036285;28;20067;-77
2021/12/04 12:08:37;;;;;;;44.28;17.23;;;5.60;99.90;;;;;;5036716;28;20084;-77
2021/12/04 12:11:19;;;;;;;41.10;16.88;;;5.50;99.90;;;;;;5036275;28;20045;-77
2021/12/04 12:13:49;;;;;;;42.75;17.63;;;5.50;99.90;;;;;;5019630;28;20041;-77
2021/12/04 12:16:25;;;;;;;36.53;17.13;;;5.50;99.90;;;;;;5036468;28;20100;-77
2021/12/04 12:19:00;;;;;;;45.47;17.38;;;5.40;99.90;;;;;;5036128;28;20041;-77
2021/12/04 12:21:53;;;;;;;54.92;17.33;;;5.40;99.90;;;;;;5036097;28;20489;-78
2021/12/04 12:32:53;;;;;;;52.95;18.35;;;5.30;99.90;;;;;;5035843;28;20151;-78
2021/12/04 12:38:11;;;;;;;50.88;18.98;;;5.30;99.90;;;;;;5035843;28;20052;-78
2021/12/04 12:40:37;;;;;;;43.85;18.55;;;5.30;99.90;;;;;;5019209;28;20056;-77
2021/12/04 12:43:18;;;;;;;49.85;18.63;;;5.30;99.90;;;;;;5018898;28;20037;-78
2021/12/04 12:45:56;;;;;;;44.03;19.00;;;5.30;99.90;;;;;;5034699;28;20044;-78
2021/12/04 12:48:22;;;;;;;46.13;19.52;;;5.20;99.90;;;;;;5035549;28;20048;-77
2021/12/04 12:50:48;;;;;;;42.25;18.48;;;5.30;99.90;;;;;;5035873;28;20033;-77
2021/12/04 12:53:26;;;;;;;49.78;20.08;;;5.20;99.90;;;;;;5035322;28;20504;-77
2021/12/04 12:56:02;;;;;;;48.10;21.33;;;5.30;99.90;;;;;;5019364;28;20124;-78
2021/12/04 12:58:37;;;;;;;59.50;21.70;;;5.20;99.90;;;;;;5035420;28;20485;-77
2021/12/04 13:12:49;;;;;;;53.72;23.58;;;5.20;99.90;;;;;;5035092;28;20158;-77
2021/12/04 13:15:29;;;;;;;48.50;23.90;;;5.20;99.90;;;;;;5035016;28;20037;-77
2021/12/04 13:17:55;;;;;;;46.03;21.70;;;5.20;99.90;;;;;;5035275;28;20107;-77
2021/12/04 13:20:23;;;;;;;50.17;23.48;;;5.20;99.90;;;;;;5035161;28;20053;-77
2021/12/04 13:22:48;;;;;;;46.45;23.55;;;5.20;99.90;;;;;;5034630;28;20127;-77
2021/12/04 13:25:14;;;;;;;53.97;23.15;;;5.20;99.90;;;;;;5034760;28;20072;-77
2021/12/04 13:30:09;;;;;;;47.60;24.67;;;5.20;99.90;;;;;;5034772;28;20044;-77
2021/12/04 13:32:38;;;;;;;56.92;23.80;;;5.10;99.90;;;;;;5034560;28;20037;-77
2021/12/04 13:35:15;;;;;;;53.45;23.77;;;5.10;99.90;;;;;;5034629;28;20033;-77
2021/12/04 13:37:41;;;;;;;46.28;23.00;;;5.10;99.90;;;;;;5018418;28;20436;-77
2021/12/04 13:40:10;;;;;;;52.15;23.17;;;5.10;99.90;;;;;;5034775;28;20527;-77
2021/12/04 13:42:38;;;;;;;47.35;23.30;;;5.10;99.90;;;;;;5017894;28;20063;-77
2021/12/04 13:45:07;;;;;;;53.05;23.50;;;5.10;99.90;;;;;;5018083;28;20048;-77
2021/12/04 13:47:33;;;;;;;52.42;23.40;;;5.10;99.90;;;;;;5034406;28;20073;-77
2021/12/04 13:50:06;;;;;;;53.17;24.63;;;5.10;99.90;;;;;;5034479;28;20504;-77
2021/12/04 13:52:47;;;;;;;58.13;24.20;;;5.10;99.90;;;;;;5033969;28;20044;-77
2021/12/04 13:55:14;;;;;;;56.53;24.92;;;5.10;99.90;;;;;;5017930;28;20044;-77
2021/12/04 13:57:41;;;;;;;49.72;23.92;;;5.10;99.90;;;;;;5017596;28;20040;-77
2021/12/04 14:00:08;;;;;;;62.05;25.15;;;5.10;99.90;;;;;;5034463;28;20041;-77
2021/12/04 14:02:33;;;;;;;55.03;23.58;;;5.10;99.90;;;;;;5034258;28;20116;-77
2021/12/04 14:05:25;;;;;;;56.53;24.02;;;5.10;99.90;;;;;;5034538;28;20151;-78
2021/12/04 14:07:54;;;;;;;63.28;23.63;;;5.10;99.90;;;;;;5029826;28;20045;-78
2021/12/04 14:10:25;;;;;;;66.25;25.00;;;5.10;99.90;;;;;;5034215;28;20056;-78
2021/12/04 14:12:51;;;;;;;59.75;23.48;;;5.00;99.90;;;;;;5017532;28;20033;-78
2021/12/04 14:15:20;;;;;;;71.40;25.48;;;5.10;99.90;;;;;;5034434;28;20052;-77
2021/12/04 14:17:49;;;;;;;72.82;24.85;;;5.10;99.90;;;;;;5034146;28;20067;-77
2021/12/04 14:20:23;;;;;;;63.30;25.05;;;5.00;99.90;;;;;;5017825;28;20532;-78
2021/12/04 14:22:51;;;;;;;53.28;22.92;;;5.10;99.90;;;;;;5033870;28;20045;-77
2021/12/04 14:25:19;;;;;;;57.45;24.48;;;5.00;99.90;;;;;;5033924;28;20040;-78
2021/12/04 14:27:46;;;;;;;62.67;24.83;;;5.00;99.90;;;;;;5017398;28;20040;-77
2021/12/04 14:30:31;;;;;;;51.53;23.20;;;5.10;99.90;;;;;;5017664;28;20041;-77
2021/12/04 14:32:57;;;;;;;55.60;23.83;;;5.10;99.90;;;;;;5033778;28;20047;-78
2021/12/04 14:35:27;;;;;;;54.75;24.38;;;5.10;99.90;;;;;;5034008;28;20133;-77
2021/12/04 14:37:56;;;;;;;57.40;24.58;;;5.10;99.90;;;;;;5033829;28;20048;-78
2021/12/04 14:40:43;;;;;;;49.38;23.70;;;5.10;99.90;;;;;;5017779;28;20037;-77
2021/12/04 14:43:14;;;;;;;49.78;23.98;;;5.00;99.90;;;;;;5033859;28;20040;-78
2021/12/04 14:45:44;;;;;;;50.40;23.27;;;5.00;99.90;;;;;;5017338;28;20045;-77
2021/12/04 14:48:16;;;;;;;52.47;23.38;;;5.00;99.90;;;;;;5017406;28;20127;-77
2021/12/04 14:50:48;;;;;;;51.75;22.88;;;5.10;99.90;;;;;;5017206;28;20501;-76
2021/12/04 14:53:16;;;;;;;53.10;24.77;;;5.00;99.90;;;;;;5033582;28;20087;-77
2021/12/04 14:55:46;;;;;;;53.60;23.10;;;5.00;99.90;;;;;;5017434;28;20103;-77
2021/12/04 14:58:14;;;;;;;46.83;23.88;;;5.00;99.90;;;;;;5017165;28;20091;-78
2021/12/04 15:00:59;;;;;;;45.58;22.38;;;5.10;99.90;;;;;;5017281;28;20068;-77
2021/12/04 15:03:45;;;;;;;52.60;23.13;;;5.00;99.90;;;;;;5033687;28;20507;-77
2021/12/04 15:06:15;;;;;;;43.85;24.02;;;5.00;99.90;;;;;;5033737;28;20128;-77
2021/12/04 15:08:47;;;;;;;51.05;23.42;;;5.00;99.90;;;;;;5034301;28;20036;-78
2021/12/04 15:11:19;;;;;;;50.92;24.50;;;5.00;99.90;;;;;;5037580;28;20045;-78
2021/12/04 15:13:53;;;;;;;57.88;24.05;;;5.00;99.90;;;;;;5020841;28;20037;-77
2021/12/04 15:16:32;;;;;;;48.50;24.52;;;5.00;99.90;;;;;;5037771;28;20471;-78
2021/12/04 15:19:14;;;;;;;51.72;25.45;;;5.00;99.90;;;;;;5037532;28;20039;-78
2021/12/04 15:21:46;;;;;;;47.67;24.40;;;5.00;99.90;;;;;;5021017;28;20584;-78
2021/12/04 15:24:20;;;;;;;53.90;26.02;;;5.00;99.90;;;;;;5037195;28;20080;-77
2021/12/04 15:26:48;;;;;;;64.00;27.33;;;5.00;99.90;;;;;;5037199;28;20059;-78
2021/12/04 15:29:17;;;;;;;63.38;26.10;;;5.00;99.90;;;;;;5037305;28;20041;-77
2021/12/04 15:31:42;;;;;;;62.08;26.17;;;5.00;99.90;;;;;;5020685;28;20043;-77
2021/12/04 15:34:08;;;;;;;64.20;26.38;;;5.00;99.90;;;;;;5036975;28;20431;-77
2021/12/04 15:36:39;;;;;;;67.68;26.55;;;5.00;99.90;;;;;;5036818;28;20040;-77
2021/12/04 15:39:12;;;;;;;54.45;25.10;;;5.00;99.90;;;;;;5020631;28;20397;-77
2021/12/04 15:44:41;;;;;;;54.50;24.60;;;5.00;99.90;;;;;;5036566;28;20103;-76
2021/12/04 15:47:20;;;;;;;58.72;23.70;;;5.00;99.90;;;;;;5020118;28;20048;-76
2021/12/04 15:55:38;;;;;;;45.33;22.65;;;5.00;99.90;;;;;;4995842;28;20044;-76
2021/12/04 15:58:13;;;;;;;45.15;23.02;;;5.00;99.90;;;;;;5030046;28;20063;-76
2021/12/04 16:00:49;;;;;;;68.00;24.88;;;5.00;99.90;;;;;;5036814;28;20439;-76
2021/12/04 16:03:16;;;;;;;61.00;23.85;;;5.00;99.90;;;;;;5036204;28;20047;-76